Polonia International Airport
WIMM : now visible

Airfield :











YOU CAN JOIN US ON...

 
LOGIN :

Register | Disclaimer

   EN    FR    IT 

 









Legend :    VFR   Marginal VFR   IFR   Intensive IFR   Very Intensive IFR
Visi :
Ceiling :
>= 8 km
>= 3000ft
5 to 8 km
1000 to 3000 ft
1500m to 5 km
500 to 1000 ft
800 to 1500m
200 to 500 ft
< 800m
< 200 ft
Symbols :   Thunderstorms  Fog  Heavy snow  Heavy precipitations  Wind > 20 kt






- Airport Elevation : 114 ft
- IATA code : MES


WIMM - Polonia International

CURRENT METAR :
  • 290430Z 30005KT 5000 HZ SCT017 30/26 Q1009 NOSIG

EXPIRED METARs :
  • 290400Z 24002KT 4000 HZ SCT017 30/26 Q1009 NOSIG
  • 290330Z 24002KT 5000 HZ FEW016CB SCT017 29/26 Q1009 NOSIG
  • 290300Z 21002KT 5000 HZ FEW016CB SCT017 29/26 Q1010 NOSIG
  • 290230Z 25003KT 4500 HZ FEW016CB SCT017 28/26 Q1010 NOSIG
  • 290200Z 27004KT 5000 HZ SCT020 28/25 Q1010 NOSIG
  • 290130Z 21002KT 5000 HZ SCT020 28/25 Q1010 NOSIG
  • 290100Z 25003KT 5000 HZ SCT020 27/26 Q1009 NOSIG
  • 290030Z 24003KT 5000 HZ SCT020 26/25 Q1008 NOSIG

TAF TAF WIMM
Valid from the 29 at 00:00 until the 30 at 00:00 UTC


282300Z 2900/3000 VRB05KT 9000 SCT018
BECMG 2902/2904 07009KT
BECMG 2911/2913 VRB05KT 4000 HZ FEW017CB BKN018
WIIF FIR / Asia



MET'MAP, your aeronautical weather chart ! - Copyright ORBIFLY December 2007 - Disclaimer

ORBIFLY MET'MAP TEAM :

Programming & Development : Alexandra Zaïnal
Original concept : Baudouin d'Aumeries
Technical & hardware support : Manuel Goepfert
Assistance : Marc-Olivier Méhu




SOURCES & CREDITS :

   NOAA       Earth
Advisory